sensor_id;sensor_type;location;lat;lon;timestamp;P1;durP1;ratioP1;P2;durP2;ratioP2
23747;SDS011;12054;53.662;10.126;2022-12-24T00:01:03;16.52;;;6.53;;
23747;SDS011;12054;53.662;10.126;2022-12-24T00:03:31;20.20;;;6.88;;
23747;SDS011;12054;53.662;10.126;2022-12-24T00:05:57;16.33;;;6.75;;
23747;SDS011;12054;53.662;10.126;2022-12-24T00:08:23;19.05;;;7.20;;
23747;SDS011;12054;53.662;10.126;2022-12-24T00:10:50;19.25;;;6.55;;
23747;SDS011;12054;53.662;10.126;2022-12-24T00:13:16;15.90;;;6.45;;
23747;SDS011;12054;53.662;10.126;2022-12-24T00:15:42;16.05;;;6.63;;
23747;SDS011;12054;53.662;10.126;2022-12-24T00:18:08;18.95;;;6.80;;
23747;SDS011;12054;53.662;10.126;2022-12-24T00:20:33;14.70;;;6.65;;
23747;SDS011;12054;53.662;10.126;2022-12-24T00:22:59;23.23;;;6.22;;
23747;SDS011;12054;53.662;10.126;2022-12-24T00:25:25;17.60;;;7.00;;
23747;SDS011;12054;53.662;10.126;2022-12-24T00:27:50;20.50;;;7.32;;
23747;SDS011;12054;53.662;10.126;2022-12-24T00:30:16;24.65;;;7.47;;
23747;SDS011;12054;53.662;10.126;2022-12-24T00:32:41;19.55;;;7.18;;
23747;SDS011;12054;53.662;10.126;2022-12-24T00:35:07;18.55;;;6.93;;
23747;SDS011;12054;53.662;10.126;2022-12-24T00:37:33;18.85;;;7.35;;
23747;SDS011;12054;53.662;10.126;2022-12-24T00:39:58;22.35;;;7.38;;
23747;SDS011;12054;53.662;10.126;2022-12-24T00:42:23;24.70;;;9.63;;
23747;SDS011;12054;53.662;10.126;2022-12-24T00:44:49;17.10;;;7.35;;
23747;SDS011;12054;53.662;10.126;2022-12-24T00:47:15;19.52;;;7.90;;
23747;SDS011;12054;53.662;10.126;2022-12-24T00:49:40;21.52;;;7.93;;
23747;SDS011;12054;53.662;10.126;2022-12-24T00:52:05;24.52;;;8.52;;
23747;SDS011;12054;53.662;10.126;2022-12-24T00:54:31;26.85;;;8.45;;
23747;SDS011;12054;53.662;10.126;2022-12-24T00:56:56;18.58;;;7.68;;
23747;SDS011;12054;53.662;10.126;2022-12-24T00:59:22;26.02;;;8.75;;
23747;SDS011;12054;53.662;10.126;2022-12-24T01:01:47;27.08;;;8.05;;
23747;SDS011;12054;53.662;10.126;2022-12-24T01:04:13;23.20;;;8.65;;
23747;SDS011;12054;53.662;10.126;2022-12-24T01:07:02;22.70;;;8.05;;
23747;SDS011;12054;53.662;10.126;2022-12-24T01:09:27;20.80;;;8.32;;
23747;SDS011;12054;53.662;10.126;2022-12-24T01:11:53;25.55;;;9.52;;
23747;SDS011;12054;53.662;10.126;2022-12-24T01:14:18;26.25;;;9.02;;
23747;SDS011;12054;53.662;10.126;2022-12-24T01:16:44;24.70;;;9.18;;
23747;SDS011;12054;53.662;10.126;2022-12-24T01:19:10;27.70;;;9.45;;
23747;SDS011;12054;53.662;10.126;2022-12-24T01:21:35;26.98;;;8.55;;
23747;SDS011;12054;53.662;10.126;2022-12-24T01:24:01;28.13;;;8.85;;
23747;SDS011;12054;53.662;10.126;2022-12-24T01:26:27;27.70;;;9.20;;
23747;SDS011;12054;53.662;10.126;2022-12-24T01:28:52;26.90;;;9.20;;
23747;SDS011;12054;53.662;10.126;2022-12-24T01:31:18;20.15;;;8.25;;
23747;SDS011;12054;53.662;10.126;2022-12-24T01:33:44;27.63;;;9.82;;
23747;SDS011;12054;53.662;10.126;2022-12-24T01:36:11;25.13;;;9.75;;
23747;SDS011;12054;53.662;10.126;2022-12-24T01:38:37;28.35;;;10.10;;
23747;SDS011;12054;53.662;10.126;2022-12-24T01:41:03;25.00;;;9.18;;
23747;SDS011;12054;53.662;10.126;2022-12-24T01:43:48;28.48;;;9.77;;
23747;SDS011;12054;53.662;10.126;2022-12-24T01:48:54;26.95;;;9.45;;
23747;SDS011;12054;53.662;10.126;2022-12-24T01:51:29;29.92;;;9.68;;
23747;SDS011;12054;53.662;10.126;2022-12-24T01:54:07;25.95;;;9.35;;
23747;SDS011;12054;53.662;10.126;2022-12-24T01:56:51;21.35;;;9.00;;
23747;SDS011;12054;53.662;10.126;2022-12-24T01:59:23;24.90;;;8.95;;
23747;SDS011;12054;53.662;10.126;2022-12-24T02:01:49;26.83;;;8.70;;
23747;SDS011;12054;53.662;10.126;2022-12-24T02:04:22;27.15;;;9.48;;
23747;SDS011;12054;53.662;10.126;2022-12-24T02:06:54;21.90;;;9.20;;
23747;SDS011;12054;53.662;10.126;2022-12-24T02:09:20;23.25;;;9.55;;
23747;SDS011;12054;53.662;10.126;2022-12-24T02:11:46;27.13;;;9.18;;
23747;SDS011;12054;53.662;10.126;2022-12-24T02:14:12;22.95;;;9.35;;
23747;SDS011;12054;53.662;10.126;2022-12-24T02:16:49;24.23;;;9.05;;
23747;SDS011;12054;53.662;10.126;2022-12-24T02:19:25;21.77;;;9.27;;
23747;SDS011;12054;53.662;10.126;2022-12-24T02:22:17;21.50;;;9.20;;
23747;SDS011;12054;53.662;10.126;2022-12-24T02:27:41;23.88;;;8.93;;
23747;SDS011;12054;53.662;10.126;2022-12-24T02:30:32;21.10;;;8.77;;
23747;SDS011;12054;53.662;10.126;2022-12-24T02:33:29;27.17;;;9.55;;
23747;SDS011;12054;53.662;10.126;2022-12-24T02:36:15;22.48;;;8.88;;
23747;SDS011;12054;53.662;10.126;2022-12-24T02:39:01;25.67;;;8.55;;
23747;SDS011;12054;53.662;10.126;2022-12-24T02:41:34;20.05;;;8.35;;
23747;SDS011;12054;53.662;10.126;2022-12-24T02:44:23;20.55;;;7.70;;
23747;SDS011;12054;53.662;10.126;2022-12-24T02:46:50;22.98;;;8.88;;
23747;SDS011;12054;53.662;10.126;2022-12-24T02:49:17;20.45;;;8.73;;
23747;SDS011;12054;53.662;10.126;2022-12-24T02:51:43;17.77;;;8.25;;
23747;SDS011;12054;53.662;10.126;2022-12-24T02:54:09;19.80;;;7.68;;
23747;SDS011;12054;53.662;10.126;2022-12-24T02:56:37;19.00;;;8.25;;
23747;SDS011;12054;53.662;10.126;2022-12-24T02:59:21;17.38;;;7.32;;
23747;SDS011;12054;53.662;10.126;2022-12-24T03:04:42;17.98;;;7.53;;
23747;SDS011;12054;53.662;10.126;2022-12-24T03:10:26;16.98;;;7.40;;
23747;SDS011;12054;53.662;10.126;2022-12-24T03:12:55;15.38;;;6.80;;
23747;SDS011;12054;53.662;10.126;2022-12-24T03:15:25;17.77;;;7.28;;
23747;SDS011;12054;53.662;10.126;2022-12-24T03:17:53;19.15;;;6.95;;
23747;SDS011;12054;53.662;10.126;2022-12-24T03:20:23;19.83;;;7.28;;
23747;SDS011;12054;53.662;10.126;2022-12-24T03:22:53;17.60;;;7.75;;
23747;SDS011;12054;53.662;10.126;2022-12-24T03:25:19;21.13;;;10.00;;
23747;SDS011;12054;53.662;10.126;2022-12-24T03:27:48;15.93;;;7.00;;
23747;SDS011;12054;53.662;10.126;2022-12-24T03:30:14;18.42;;;7.30;;
23747;SDS011;12054;53.662;10.126;2022-12-24T03:32:42;11.32;;;6.40;;
23747;SDS011;12054;53.662;10.126;2022-12-24T03:35:08;19.23;;;7.30;;
23747;SDS011;12054;53.662;10.126;2022-12-24T03:37:34;16.75;;;7.38;;
23747;SDS011;12054;53.662;10.126;2022-12-24T03:40:00;14.32;;;6.68;;
23747;SDS011;12054;53.662;10.126;2022-12-24T03:42:25;19.75;;;7.50;;
23747;SDS011;12054;53.662;10.126;2022-12-24T03:44:51;16.98;;;6.80;;
23747;SDS011;12054;53.662;10.126;2022-12-24T03:47:16;14.88;;;7.18;;
23747;SDS011;12054;53.662;10.126;2022-12-24T03:49:42;16.77;;;7.18;;
23747;SDS011;12054;53.662;10.126;2022-12-24T03:52:07;13.73;;;6.60;;
23747;SDS011;12054;53.662;10.126;2022-12-24T03:54:33;15.80;;;6.32;;
23747;SDS011;12054;53.662;10.126;2022-12-24T03:56:58;13.77;;;6.75;;
23747;SDS011;12054;53.662;10.126;2022-12-24T03:59:24;17.67;;;6.88;;
23747;SDS011;12054;53.662;10.126;2022-12-24T04:01:51;15.05;;;5.88;;
23747;SDS011;12054;53.662;10.126;2022-12-24T04:04:17;15.27;;;6.95;;
23747;SDS011;12054;53.662;10.126;2022-12-24T04:06:42;15.60;;;6.63;;
23747;SDS011;12054;53.662;10.126;2022-12-24T04:09:08;14.93;;;6.53;;
23747;SDS011;12054;53.662;10.126;2022-12-24T04:11:33;14.05;;;6.57;;
23747;SDS011;12054;53.662;10.126;2022-12-24T04:13:59;14.25;;;6.35;;
23747;SDS011;12054;53.662;10.126;2022-12-24T04:16:24;15.93;;;6.43;;
23747;SDS011;12054;53.662;10.126;2022-12-24T04:18:50;17.02;;;6.05;;
23747;SDS011;12054;53.662;10.126;2022-12-24T04:21:17;14.90;;;6.72;;
23747;SDS011;12054;53.662;10.126;2022-12-24T04:23:42;18.48;;;6.97;;
23747;SDS011;12054;53.662;10.126;2022-12-24T04:26:09;14.02;;;6.53;;
23747;SDS011;12054;53.662;10.126;2022-12-24T04:28:35;12.32;;;6.20;;
23747;SDS011;12054;53.662;10.126;2022-12-24T04:31:03;15.93;;;6.45;;
23747;SDS011;12054;53.662;10.126;2022-12-24T04:33:31;11.15;;;5.78;;
23747;SDS011;12054;53.662;10.126;2022-12-24T04:35:57;17.35;;;6.57;;
23747;SDS011;12054;53.662;10.126;2022-12-24T04:38:24;15.40;;;6.53;;
23747;SDS011;12054;53.662;10.126;2022-12-24T04:43:25;12.00;;;6.13;;
23747;SDS011;12054;53.662;10.126;2022-12-24T04:45:52;13.32;;;5.78;;
23747;SDS011;12054;53.662;10.126;2022-12-24T04:48:17;18.00;;;6.80;;
23747;SDS011;12054;53.662;10.126;2022-12-24T04:50:43;12.00;;;5.88;;
23747;SDS011;12054;53.662;10.126;2022-12-24T04:53:08;11.70;;;5.72;;
23747;SDS011;12054;53.662;10.126;2022-12-24T04:55:33;14.73;;;5.68;;
23747;SDS011;12054;53.662;10.126;2022-12-24T04:57:59;13.73;;;6.40;;
23747;SDS011;12054;53.662;10.126;2022-12-24T05:00:24;12.52;;;6.05;;
23747;SDS011;12054;53.662;10.126;2022-12-24T05:02:50;13.35;;;6.00;;
23747;SDS011;12054;53.662;10.126;2022-12-24T05:05:16;14.20;;;5.95;;
23747;SDS011;12054;53.662;10.126;2022-12-24T05:07:41;12.15;;;5.85;;
23747;SDS011;12054;53.662;10.126;2022-12-24T05:10:07;15.43;;;6.00;;
23747;SDS011;12054;53.662;10.126;2022-12-24T05:12:34;13.20;;;5.45;;
23747;SDS011;12054;53.662;10.126;2022-12-24T05:15:00;13.63;;;5.80;;
23747;SDS011;12054;53.662;10.126;2022-12-24T05:17:26;12.43;;;5.78;;
23747;SDS011;12054;53.662;10.126;2022-12-24T05:19:51;13.23;;;6.38;;
23747;SDS011;12054;53.662;10.126;2022-12-24T05:22:17;14.35;;;5.63;;
23747;SDS011;12054;53.662;10.126;2022-12-24T05:25:03;13.57;;;5.90;;
23747;SDS011;12054;53.662;10.126;2022-12-24T05:27:49;13.20;;;6.03;;
23747;SDS011;12054;53.662;10.126;2022-12-24T05:30:14;12.15;;;5.97;;
23747;SDS011;12054;53.662;10.126;2022-12-24T05:32:40;16.92;;;6.53;;
23747;SDS011;12054;53.662;10.126;2022-12-24T05:35:06;13.18;;;5.88;;
23747;SDS011;12054;53.662;10.126;2022-12-24T05:37:31;13.55;;;5.93;;
23747;SDS011;12054;53.662;10.126;2022-12-24T05:39:57;14.93;;;5.70;;
23747;SDS011;12054;53.662;10.126;2022-12-24T05:42:22;14.45;;;6.05;;
23747;SDS011;12054;53.662;10.126;2022-12-24T05:44:48;11.55;;;5.82;;
23747;SDS011;12054;53.662;10.126;2022-12-24T05:47:13;18.55;;;7.88;;
23747;SDS011;12054;53.662;10.126;2022-12-24T05:49:39;16.17;;;6.55;;
23747;SDS011;12054;53.662;10.126;2022-12-24T05:52:04;13.30;;;5.85;;
23747;SDS011;12054;53.662;10.126;2022-12-24T05:54:30;13.27;;;5.47;;
23747;SDS011;12054;53.662;10.126;2022-12-24T05:56:55;14.95;;;5.60;;
23747;SDS011;12054;53.662;10.126;2022-12-24T05:59:21;10.95;;;5.03;;
23747;SDS011;12054;53.662;10.126;2022-12-24T06:01:46;12.00;;;5.45;;
23747;SDS011;12054;53.662;10.126;2022-12-24T06:04:12;9.50;;;4.72;;
23747;SDS011;12054;53.662;10.126;2022-12-24T06:06:38;12.45;;;5.10;;
23747;SDS011;12054;53.662;10.126;2022-12-24T06:09:03;11.05;;;4.97;;
23747;SDS011;12054;53.662;10.126;2022-12-24T06:11:29;9.93;;;5.07;;
23747;SDS011;12054;53.662;10.126;2022-12-24T06:13:55;13.63;;;5.30;;
23747;SDS011;12054;53.662;10.126;2022-12-24T06:16:21;10.85;;;5.00;;
23747;SDS011;12054;53.662;10.126;2022-12-24T06:18:48;10.80;;;5.10;;
23747;SDS011;12054;53.662;10.126;2022-12-24T06:21:13;14.30;;;6.00;;
23747;SDS011;12054;53.662;10.126;2022-12-24T06:23:41;12.35;;;5.28;;
23747;SDS011;12054;53.662;10.126;2022-12-24T06:26:08;11.98;;;5.57;;
23747;SDS011;12054;53.662;10.126;2022-12-24T06:28:36;13.30;;;5.10;;
23747;SDS011;12054;53.662;10.126;2022-12-24T06:31:02;10.85;;;5.72;;
23747;SDS011;12054;53.662;10.126;2022-12-24T06:33:29;13.27;;;5.57;;
23747;SDS011;12054;53.662;10.126;2022-12-24T06:35:55;11.57;;;5.30;;
23747;SDS011;12054;53.662;10.126;2022-12-24T06:38:21;10.63;;;5.05;;
23747;SDS011;12054;53.662;10.126;2022-12-24T06:40:46;10.45;;;5.00;;
23747;SDS011;12054;53.662;10.126;2022-12-24T06:43:13;11.88;;;6.03;;
23747;SDS011;12054;53.662;10.126;2022-12-24T06:45:39;12.23;;;5.43;;
23747;SDS011;12054;53.662;10.126;2022-12-24T06:48:09;10.93;;;4.97;;
23747;SDS011;12054;53.662;10.126;2022-12-24T06:50:35;11.25;;;4.82;;
23747;SDS011;12054;53.662;10.126;2022-12-24T06:53:00;10.80;;;4.93;;
23747;SDS011;12054;53.662;10.126;2022-12-24T06:55:26;11.10;;;5.22;;
23747;SDS011;12054;53.662;10.126;2022-12-24T06:57:51;9.73;;;4.88;;
23747;SDS011;12054;53.662;10.126;2022-12-24T07:00:17;8.68;;;4.70;;
23747;SDS011;12054;53.662;10.126;2022-12-24T07:02:44;9.10;;;4.28;;
23747;SDS011;12054;53.662;10.126;2022-12-24T07:05:10;11.90;;;4.85;;
23747;SDS011;12054;53.662;10.126;2022-12-24T07:07:37;10.65;;;4.55;;
23747;SDS011;12054;53.662;10.126;2022-12-24T07:10:04;9.00;;;4.45;;
23747;SDS011;12054;53.662;10.126;2022-12-24T07:12:31;9.13;;;3.92;;
23747;SDS011;12054;53.662;10.126;2022-12-24T07:14:57;8.65;;;4.18;;
23747;SDS011;12054;53.662;10.126;2022-12-24T07:17:22;9.38;;;4.40;;
23747;SDS011;12054;53.662;10.126;2022-12-24T07:19:48;8.10;;;3.90;;
23747;SDS011;12054;53.662;10.126;2022-12-24T07:22:13;9.27;;;4.47;;
23747;SDS011;12054;53.662;10.126;2022-12-24T07:24:39;8.45;;;3.83;;
23747;SDS011;12054;53.662;10.126;2022-12-24T07:27:04;6.90;;;3.78;;
23747;SDS011;12054;53.662;10.126;2022-12-24T07:29:30;8.45;;;3.70;;
23747;SDS011;12054;53.662;10.126;2022-12-24T07:31:55;8.85;;;3.92;;
23747;SDS011;12054;53.662;10.126;2022-12-24T07:34:21;7.50;;;4.20;;
23747;SDS011;12054;53.662;10.126;2022-12-24T07:36:46;7.10;;;3.50;;
23747;SDS011;12054;53.662;10.126;2022-12-24T07:39:12;7.90;;;3.63;;
23747;SDS011;12054;53.662;10.126;2022-12-24T07:41:37;7.28;;;3.85;;
23747;SDS011;12054;53.662;10.126;2022-12-24T07:44:03;7.10;;;3.45;;
23747;SDS011;12054;53.662;10.126;2022-12-24T07:46:28;10.05;;;4.03;;
23747;SDS011;12054;53.662;10.126;2022-12-24T07:48:56;5.88;;;3.55;;
23747;SDS011;12054;53.662;10.126;2022-12-24T07:51:21;6.93;;;3.65;;
23747;SDS011;12054;53.662;10.126;2022-12-24T07:53:47;6.15;;;3.30;;
23747;SDS011;12054;53.662;10.126;2022-12-24T07:56:16;8.95;;;3.42;;
23747;SDS011;12054;53.662;10.126;2022-12-24T07:58:41;6.72;;;3.45;;
23747;SDS011;12054;53.662;10.126;2022-12-24T08:01:07;6.18;;;3.55;;
23747;SDS011;12054;53.662;10.126;2022-12-24T08:03:33;6.18;;;3.28;;
23747;SDS011;12054;53.662;10.126;2022-12-24T08:05:59;5.50;;;3.20;;
23747;SDS011;12054;53.662;10.126;2022-12-24T08:08:26;6.03;;;3.42;;
23747;SDS011;12054;53.662;10.126;2022-12-24T08:10:51;7.28;;;3.30;;
23747;SDS011;12054;53.662;10.126;2022-12-24T08:13:17;8.32;;;3.75;;
23747;SDS011;12054;53.662;10.126;2022-12-24T08:15:43;5.43;;;3.53;;
23747;SDS011;12054;53.662;10.126;2022-12-24T08:18:09;6.45;;;3.83;;
23747;SDS011;12054;53.662;10.126;2022-12-24T08:20:38;5.55;;;3.25;;
23747;SDS011;12054;53.662;10.126;2022-12-24T08:23:05;6.20;;;3.60;;
23747;SDS011;12054;53.662;10.126;2022-12-24T08:25:31;4.18;;;2.92;;
23747;SDS011;12054;53.662;10.126;2022-12-24T08:27:56;4.60;;;3.00;;
23747;SDS011;12054;53.662;10.126;2022-12-24T08:30:22;6.72;;;3.95;;
23747;SDS011;12054;53.662;10.126;2022-12-24T08:32:47;6.18;;;3.50;;
23747;SDS011;12054;53.662;10.126;2022-12-24T08:35:13;5.88;;;3.30;;
23747;SDS011;12054;53.662;10.126;2022-12-24T08:37:38;5.88;;;3.10;;
23747;SDS011;12054;53.662;10.126;2022-12-24T08:40:04;6.60;;;3.70;;
23747;SDS011;12054;53.662;10.126;2022-12-24T08:42:30;7.60;;;4.07;;
23747;SDS011;12054;53.662;10.126;2022-12-24T08:44:56;6.18;;;3.63;;
23747;SDS011;12054;53.662;10.126;2022-12-24T08:47:21;8.25;;;3.58;;
23747;SDS011;12054;53.662;10.126;2022-12-24T08:49:47;7.68;;;4.10;;
23747;SDS011;12054;53.662;10.126;2022-12-24T08:52:12;6.80;;;4.00;;
23747;SDS011;12054;53.662;10.126;2022-12-24T08:54:38;6.65;;;3.70;;
23747;SDS011;12054;53.662;10.126;2022-12-24T08:57:03;6.40;;;3.47;;
23747;SDS011;12054;53.662;10.126;2022-12-24T08:59:29;6.68;;;3.63;;
23747;SDS011;12054;53.662;10.126;2022-12-24T09:01:54;9.02;;;4.45;;
23747;SDS011;12054;53.662;10.126;2022-12-24T09:04:20;7.50;;;4.28;;
23747;SDS011;12054;53.662;10.126;2022-12-24T09:06:45;8.02;;;4.40;;
23747;SDS011;12054;53.662;10.126;2022-12-24T09:09:11;8.15;;;3.92;;
23747;SDS011;12054;53.662;10.126;2022-12-24T09:11:36;7.05;;;4.20;;
23747;SDS011;12054;53.662;10.126;2022-12-24T09:14:03;6.72;;;4.03;;
23747;SDS011;12054;53.662;10.126;2022-12-24T09:16:29;8.57;;;4.18;;
23747;SDS011;12054;53.662;10.126;2022-12-24T09:18:55;7.55;;;4.25;;
23747;SDS011;12054;53.662;10.126;2022-12-24T09:21:22;8.40;;;4.60;;
23747;SDS011;12054;53.662;10.126;2022-12-24T09:23:47;8.07;;;4.70;;
23747;SDS011;12054;53.662;10.126;2022-12-24T09:26:19;9.40;;;4.93;;
23747;SDS011;12054;53.662;10.126;2022-12-24T09:28:47;7.60;;;4.40;;
23747;SDS011;12054;53.662;10.126;2022-12-24T09:31:13;7.90;;;4.88;;
23747;SDS011;12054;53.662;10.126;2022-12-24T09:33:39;6.90;;;4.28;;
23747;SDS011;12054;53.662;10.126;2022-12-24T09:36:06;7.75;;;4.78;;
23747;SDS011;12054;53.662;10.126;2022-12-24T09:38:32;8.50;;;5.18;;
23747;SDS011;12054;53.662;10.126;2022-12-24T09:40:58;7.18;;;4.78;;
23747;SDS011;12054;53.662;10.126;2022-12-24T09:43:27;10.40;;;5.70;;
23747;SDS011;12054;53.662;10.126;2022-12-24T09:46:00;7.57;;;4.45;;
23747;SDS011;12054;53.662;10.126;2022-12-24T09:48:36;7.90;;;4.45;;
23747;SDS011;12054;53.662;10.126;2022-12-24T09:51:15;8.73;;;5.03;;
23747;SDS011;12054;53.662;10.126;2022-12-24T09:53:56;8.57;;;4.72;;
23747;SDS011;12054;53.662;10.126;2022-12-24T09:56:37;10.57;;;5.47;;
23747;SDS011;12054;53.662;10.126;2022-12-24T09:59:06;10.07;;;5.25;;
23747;SDS011;12054;53.662;10.126;2022-12-24T10:01:37;9.00;;;5.07;;
23747;SDS011;12054;53.662;10.126;2022-12-24T10:04:04;8.85;;;5.45;;
23747;SDS011;12054;53.662;10.126;2022-12-24T10:06:37;9.68;;;5.43;;
23747;SDS011;12054;53.662;10.126;2022-12-24T10:09:38;9.85;;;5.70;;
23747;SDS011;12054;53.662;10.126;2022-12-24T10:18:02;10.95;;;5.72;;
23747;SDS011;12054;53.662;10.126;2022-12-24T10:20:41;10.90;;;6.45;;
23747;SDS011;12054;53.662;10.126;2022-12-24T10:28:33;10.85;;;6.38;;
23747;SDS011;12054;53.662;10.126;2022-12-24T10:31:10;11.27;;;5.53;;
23747;SDS011;12054;53.662;10.126;2022-12-24T10:33:42;12.88;;;6.75;;
23747;SDS011;12054;53.662;10.126;2022-12-24T10:36:10;12.32;;;6.68;;
23747;SDS011;12054;53.662;10.126;2022-12-24T10:38:41;12.55;;;6.68;;
23747;SDS011;12054;53.662;10.126;2022-12-24T10:41:07;12.18;;;6.13;;
23747;SDS011;12054;53.662;10.126;2022-12-24T10:43:33;12.35;;;6.28;;
23747;SDS011;12054;53.662;10.126;2022-12-24T10:46:02;10.93;;;6.35;;
23747;SDS011;12054;53.662;10.126;2022-12-24T10:48:39;12.38;;;6.50;;
23747;SDS011;12054;53.662;10.126;2022-12-24T10:51:21;13.35;;;7.10;;
23747;SDS011;12054;53.662;10.126;2022-12-24T10:56:43;12.13;;;6.82;;
23747;SDS011;12054;53.662;10.126;2022-12-24T10:59:39;11.52;;;6.80;;
23747;SDS011;12054;53.662;10.126;2022-12-24T11:02:31;11.35;;;6.60;;
23747;SDS011;12054;53.662;10.126;2022-12-24T11:05:00;11.07;;;6.35;;
23747;SDS011;12054;53.662;10.126;2022-12-24T11:07:28;12.57;;;6.63;;
23747;SDS011;12054;53.662;10.126;2022-12-24T11:09:56;11.95;;;6.60;;
23747;SDS011;12054;53.662;10.126;2022-12-24T11:12:39;10.50;;;6.32;;
23747;SDS011;12054;53.662;10.126;2022-12-24T11:15:15;10.50;;;6.10;;
23747;SDS011;12054;53.662;10.126;2022-12-24T11:20:41;11.98;;;6.43;;
23747;SDS011;12054;53.662;10.126;2022-12-24T11:23:15;11.43;;;6.57;;
23747;SDS011;12054;53.662;10.126;2022-12-24T11:25:49;12.88;;;6.40;;
23747;SDS011;12054;53.662;10.126;2022-12-24T11:28:26;11.27;;;6.60;;
23747;SDS011;12054;53.662;10.126;2022-12-24T11:31:05;10.65;;;6.15;;
23747;SDS011;12054;53.662;10.126;2022-12-24T11:33:51;11.95;;;6.28;;
23747;SDS011;12054;53.662;10.126;2022-12-24T11:36:19;10.25;;;6.15;;
23747;SDS011;12054;53.662;10.126;2022-12-24T11:38:53;13.73;;;7.13;;
23747;SDS011;12054;53.662;10.126;2022-12-24T11:41:21;10.45;;;6.45;;
23747;SDS011;12054;53.662;10.126;2022-12-24T11:43:49;12.75;;;7.32;;
23747;SDS011;12054;53.662;10.126;2022-12-24T11:51:37;13.48;;;7.47;;
23747;SDS011;12054;53.662;10.126;2022-12-24T11:56:52;16.60;;;7.10;;
23747;SDS011;12054;53.662;10.126;2022-12-24T11:59:27;14.65;;;7.20;;
23747;SDS011;12054;53.662;10.126;2022-12-24T12:04:42;12.70;;;7.10;;
23747;SDS011;12054;53.662;10.126;2022-12-24T12:07:14;12.35;;;6.82;;
23747;SDS011;12054;53.662;10.126;2022-12-24T12:09:52;11.82;;;6.97;;
23747;SDS011;12054;53.662;10.126;2022-12-24T12:12:24;14.10;;;7.65;;
23747;SDS011;12054;53.662;10.126;2022-12-24T12:15:42;12.20;;;7.15;;
23747;SDS011;12054;53.662;10.126;2022-12-24T12:17:53;13.43;;;7.18;;
23747;SDS011;12054;53.662;10.126;2022-12-24T12:20:25;12.48;;;7.30;;
23747;SDS011;12054;53.662;10.126;2022-12-24T12:23:12;13.30;;;7.90;;
23747;SDS011;12054;53.662;10.126;2022-12-24T12:28:46;15.05;;;8.23;;
23747;SDS011;12054;53.662;10.126;2022-12-24T12:31:20;13.93;;;7.78;;
23747;SDS011;12054;53.662;10.126;2022-12-24T12:36:25;14.68;;;8.07;;
23747;SDS011;12054;53.662;10.126;2022-12-24T12:38:58;13.95;;;7.88;;
23747;SDS011;12054;53.662;10.126;2022-12-24T12:41:45;15.35;;;8.70;;
23747;SDS011;12054;53.662;10.126;2022-12-24T12:45:10;14.57;;;8.50;;
23747;SDS011;12054;53.662;10.126;2022-12-24T12:50:01;13.70;;;8.23;;
23747;SDS011;12054;53.662;10.126;2022-12-24T12:55:31;16.17;;;9.63;;
23747;SDS011;12054;53.662;10.126;2022-12-24T12:58:32;15.02;;;9.13;;
23747;SDS011;12054;53.662;10.126;2022-12-24T13:18:36;17.55;;;9.18;;
23747;SDS011;12054;53.662;10.126;2022-12-24T13:21:19;16.45;;;9.55;;
23747;SDS011;12054;53.662;10.126;2022-12-24T13:23:47;15.90;;;9.57;;
23747;SDS011;12054;53.662;10.126;2022-12-24T13:26:13;19.73;;;9.88;;
23747;SDS011;12054;53.662;10.126;2022-12-24T13:28:40;22.92;;;9.95;;
23747;SDS011;12054;53.662;10.126;2022-12-24T13:36:02;22.88;;;10.50;;
23747;SDS011;12054;53.662;10.126;2022-12-24T13:38:49;21.90;;;11.27;;
23747;SDS011;12054;53.662;10.126;2022-12-24T13:44:02;28.88;;;12.70;;
23747;SDS011;12054;53.662;10.126;2022-12-24T13:49:28;25.95;;;14.55;;
23747;SDS011;12054;53.662;10.126;2022-12-24T13:54:37;26.42;;;14.32;;
23747;SDS011;12054;53.662;10.126;2022-12-24T14:00:03;29.23;;;14.15;;
23747;SDS011;12054;53.662;10.126;2022-12-24T14:02:46;27.92;;;14.45;;
23747;SDS011;12054;53.662;10.126;2022-12-24T14:05:21;27.75;;;14.45;;
23747;SDS011;12054;53.662;10.126;2022-12-24T14:07:57;26.35;;;13.35;;
23747;SDS011;12054;53.662;10.126;2022-12-24T14:10:27;25.63;;;13.73;;
23747;SDS011;12054;53.662;10.126;2022-12-24T14:12:55;25.27;;;14.15;;
23747;SDS011;12054;53.662;10.126;2022-12-24T14:18:24;31.88;;;16.80;;
23747;SDS011;12054;53.662;10.126;2022-12-24T14:20:54;31.48;;;16.65;;
23747;SDS011;12054;53.662;10.126;2022-12-24T14:23:27;28.15;;;14.30;;
23747;SDS011;12054;53.662;10.126;2022-12-24T14:26:01;27.27;;;13.60;;
23747;SDS011;12054;53.662;10.126;2022-12-24T14:28:35;31.95;;;15.98;;
23747;SDS011;12054;53.662;10.126;2022-12-24T14:31:10;36.00;;;15.55;;
23747;SDS011;12054;53.662;10.126;2022-12-24T14:33:39;34.47;;;15.95;;
23747;SDS011;12054;53.662;10.126;2022-12-24T14:36:05;28.98;;;14.85;;
23747;SDS011;12054;53.662;10.126;2022-12-24T14:38:31;33.33;;;15.20;;
23747;SDS011;12054;53.662;10.126;2022-12-24T14:41:06;37.03;;;14.80;;
23747;SDS011;12054;53.662;10.126;2022-12-24T14:44:06;35.78;;;16.13;;
23747;SDS011;12054;53.662;10.126;2022-12-24T14:46:53;32.45;;;16.50;;
23747;SDS011;12054;53.662;10.126;2022-12-24T14:52:13;36.40;;;18.05;;
23747;SDS011;12054;53.662;10.126;2022-12-24T14:54:51;35.53;;;17.95;;
23747;SDS011;12054;53.662;10.126;2022-12-24T14:57:18;36.85;;;17.50;;
23747;SDS011;12054;53.662;10.126;2022-12-24T15:05:05;42.05;;;19.48;;
23747;SDS011;12054;53.662;10.126;2022-12-24T15:07:36;43.58;;;20.65;;
23747;SDS011;12054;53.662;10.126;2022-12-24T15:10:20;38.55;;;19.80;;
23747;SDS011;12054;53.662;10.126;2022-12-24T15:13:01;42.53;;;20.25;;
23747;SDS011;12054;53.662;10.126;2022-12-24T15:15:33;43.25;;;20.10;;
23747;SDS011;12054;53.662;10.126;2022-12-24T15:17:59;42.35;;;19.77;;
23747;SDS011;12054;53.662;10.126;2022-12-24T15:20:29;52.10;;;21.52;;
23747;SDS011;12054;53.662;10.126;2022-12-24T15:22:56;45.05;;;21.85;;
23747;SDS011;12054;53.662;10.126;2022-12-24T15:25:24;50.17;;;21.33;;
23747;SDS011;12054;53.662;10.126;2022-12-24T15:27:55;45.22;;;22.17;;
23747;SDS011;12054;53.662;10.126;2022-12-24T15:30:23;51.30;;;22.58;;
23747;SDS011;12054;53.662;10.126;2022-12-24T15:32:55;51.85;;;24.77;;
23747;SDS011;12054;53.662;10.126;2022-12-24T15:38:09;52.33;;;28.10;;
23747;SDS011;12054;53.662;10.126;2022-12-24T15:40:49;47.03;;;25.42;;
23747;SDS011;12054;53.662;10.126;2022-12-24T15:43:14;47.00;;;23.95;;
23747;SDS011;12054;53.662;10.126;2022-12-24T15:45:41;46.30;;;22.15;;
23747;SDS011;12054;53.662;10.126;2022-12-24T15:48:12;47.75;;;21.40;;
23747;SDS011;12054;53.662;10.126;2022-12-24T15:50:46;50.38;;;21.35;;
23747;SDS011;12054;53.662;10.126;2022-12-24T15:53:13;39.97;;;21.52;;
23747;SDS011;12054;53.662;10.126;2022-12-24T15:56:06;44.65;;;21.85;;
23747;SDS011;12054;53.662;10.126;2022-12-24T15:58:41;48.50;;;22.45;;
23747;SDS011;12054;53.662;10.126;2022-12-24T16:03:37;50.88;;;20.98;;
23747;SDS011;12054;53.662;10.126;2022-12-24T16:06:05;48.78;;;21.33;;
23747;SDS011;12054;53.662;10.126;2022-12-24T16:08:33;48.20;;;21.45;;
23747;SDS011;12054;53.662;10.126;2022-12-24T16:11:19;48.58;;;21.52;;
23747;SDS011;12054;53.662;10.126;2022-12-24T16:13:59;46.85;;;22.27;;
23747;SDS011;12054;53.662;10.126;2022-12-24T16:16:38;46.00;;;22.70;;
23747;SDS011;12054;53.662;10.126;2022-12-24T16:19:06;43.10;;;20.40;;